createdAt,value
2017-04-10T00:00:03.187Z,1005.02
2017-04-10T00:15:03.021Z,1004.76
2017-04-10T00:30:02.424Z,1004.58
2017-04-10T00:45:03.081Z,1004.36
2017-04-10T01:00:03.097Z,1004.06
2017-04-10T01:15:02.531Z,1003.9
2017-04-10T01:30:03.446Z,1003.63
2017-04-10T01:45:02.725Z,1003.49
2017-04-10T02:00:02.963Z,1003.36
2017-04-10T02:15:02.479Z,1003.21
2017-04-10T02:30:02.641Z,1003.02
2017-04-10T02:45:02.995Z,1002.96
2017-04-10T03:00:03.556Z,1002.82
2017-04-10T03:15:02.947Z,1002.77
2017-04-10T03:30:02.572Z,1002.6
2017-04-10T03:45:03.312Z,1002.46
2017-04-10T04:00:03.482Z,1002.23
2017-04-10T04:15:02.485Z,1002.09
2017-04-10T04:30:03.558Z,1002.1
2017-04-10T04:45:02.965Z,1002.03
2017-04-10T05:00:02.990Z,1002.01
2017-04-10T05:15:03.126Z,1002.11
2017-04-10T05:30:03.178Z,1002.16
2017-04-10T05:45:03.040Z,1002.06
2017-04-10T06:00:02.774Z,1002.23
2017-04-10T06:15:03.191Z,1002.48
2017-04-10T06:30:03.156Z,1002.48
2017-04-10T06:45:03.170Z,1002.56
2017-04-10T07:00:02.868Z,1002.88
2017-04-10T07:15:03.118Z,1003.11
2017-04-10T07:30:03.053Z,1003.4
2017-04-10T07:45:02.617Z,1003.65
2017-04-10T08:00:03.197Z,1003.87
2017-04-10T08:15:02.536Z,1004.19
2017-04-10T08:30:02.695Z,1004.21
2017-04-10T08:45:03.464Z,1004.45
2017-04-10T09:00:02.929Z,1004.68
2017-04-10T09:15:03.106Z,1004.89
2017-04-10T09:30:03.354Z,1005.06
2017-04-10T09:45:03.090Z,1005.16
2017-04-10T10:00:03.450Z,1005.53
2017-04-10T10:15:03.321Z,1005.75
2017-04-10T10:30:02.436Z,1005.98
2017-04-10T10:45:02.917Z,1005.92
2017-04-10T11:00:02.526Z,1006.07
2017-04-10T11:15:03.565Z,1006.17
2017-04-10T11:30:02.532Z,1006.15
2017-04-10T11:45:03.006Z,1006.36
2017-04-10T12:00:02.830Z,1006.65
2017-04-10T12:15:02.901Z,1006.49
2017-04-10T12:30:02.847Z,1006.72
2017-04-10T12:45:02.707Z,1007.03
2017-04-10T13:00:02.700Z,1007.13
2017-04-10T13:15:03.237Z,1007.41
2017-04-10T13:30:03.423Z,1007.34
2017-04-10T13:45:03.093Z,1007.28
2017-04-10T14:00:03.557Z,1007.13
2017-04-10T14:15:03.266Z,1007.28
2017-04-10T14:30:03.169Z,1007.11
2017-04-10T14:45:02.913Z,1007.14
2017-04-10T15:00:02.886Z,1007.3
2017-04-10T15:15:02.562Z,1007.33
2017-04-10T15:30:03.370Z,1007.31
2017-04-10T15:45:03.339Z,1007.31
2017-04-10T16:00:02.477Z,1007.68
2017-04-10T16:15:02.695Z,1007.68
2017-04-10T16:30:03.126Z,1007.77
2017-04-10T16:45:03.001Z,1007.82
2017-04-10T17:00:03.104Z,1007.92
2017-04-10T17:15:03.528Z,1007.89
2017-04-10T17:30:03.168Z,1007.94
2017-04-10T17:45:03.122Z,1008.01
2017-04-10T18:00:03.268Z,1007.96
2017-04-10T18:15:03.284Z,1008.16
2017-04-10T18:30:03.049Z,1008.2
2017-04-10T18:45:03.210Z,1008.23
2017-04-10T19:00:02.929Z,1008.39
2017-04-10T19:15:02.603Z,1008.39
2017-04-10T19:30:03.154Z,1008.56
2017-04-10T19:45:04.327Z,1008.6
2017-04-10T20:00:02.718Z,1008.66
2017-04-10T20:15:02.605Z,1008.68
2017-04-10T20:30:02.444Z,1008.8
2017-04-10T20:45:03.479Z,1008.89
2017-04-10T21:00:03.261Z,1008.93
2017-04-10T21:15:02.609Z,1008.96
2017-04-10T21:30:03.339Z,1009.01
2017-04-10T21:45:02.879Z,1009.08
2017-04-10T22:00:02.718Z,1009.2
2017-04-10T22:15:02.882Z,1009.27
2017-04-10T22:30:03.214Z,1009.47
2017-04-10T22:45:02.825Z,1009.45
2017-04-10T23:00:02.401Z,1009.59
2017-04-10T23:15:03.301Z,1009.61
2017-04-10T23:30:02.591Z,1009.56
2017-04-10T23:45:03.005Z,1009.69
